Flight Track Log - Related Links

Times and Time Zones

All times are in EDT time to prevent confusion due to time zone crossing. See the FLG3493 flight status page for this flight to view local times or setup timezone preferences in your user account.

Time Position Orientation Groundspeed Altitude Reporting Facility
EDT Latitude Longitude Course Direction KTS MPH feet Rate Location/Type
Sun 04:47:21 PM 40.6833 -74.1833 194° South 153 176 700  Level New York TRACON
Sun 04:48:21 PM 40.6333 -74.2000 194° South 208 239 2,500 2,364 Climbing New York TRACON
Sun 04:50:06 PM 40.7222 -74.2706 329° Northwest 212 244 7,200 2,530 Climbing New York Center
Sun 04:51:07 PM 40.7781 -74.2869 347° North 243 280 9,500 1,750 Climbing New York Center
Sun 04:52:06 PM 40.8603 -74.3269 340° North 278 320 10,700 1,240 Climbing New York Center
Sun 04:53:08 PM 40.9425 -74.3642 341° North 284 327 12,000 650 Climbing New York Center
Sun 04:54:06 PM 41.0156 -74.3544 North 279 321 12,000 1,361 Level New York Center
Sun 04:55:07 PM 41.1006 -74.2983 26° Northeast 295 339 14,700 1,513 Climbing New York Center
Sun 04:56:05 PM 41.1758 -74.2139 40° Northeast 321 369 15,000 655 Climbing New York Center
Sun 04:57:06 PM 41.2469 -74.1350 40° Northeast 338 389 16,000 500 Climbing New York Center
Sun 04:58:05 PM 41.3189 -74.1661 342° North 251 289 16,000  Level New York Center
Sun 04:59:06 PM 41.3600 -74.2594 300° West 251 289 16,000 347 Level New York Center
Sun 05:00:06 PM 41.4011 -74.3472 302° West 274 315 16,700 1,300 Climbing New York Center
Sun 05:01:06 PM 41.4381 -74.4294 301° West 292 336 18,600 1,500 Climbing New York Center
Sun 05:02:06 PM 41.4869 -74.5317 303° West 314 361 19,700 1,500 Climbing New York Center
Sun 05:03:06 PM 41.5292 -74.6450 296° West 329 379 21,600 1,934 Climbing New York Center
Sun 05:04:07 PM 41.5794 -74.7589 301° West 343 395 23,600 1,866 Climbing New York Center
Sun 05:05:05 PM 41.6278 -74.8728 300° West 349 402 25,300 1,627 Climbing New York Center
Sun 05:06:05 PM 41.6797 -74.9897 301° West 355 409 26,800 1,190 Climbing New York Center
Sun 05:07:06 PM 41.7336 -75.1156 300° West 376 433 27,700 1,131 Climbing New York Center
Sun 05:08:07 PM 41.7869 -75.2442 299° West 387 445 29,100 1,563 Climbing New York Center
Sun 05:09:05 PM 41.8425 -75.3731 300° West 392 451 30,800 1,627 Climbing New York Center
Sun 05:10:05 PM 41.8939 -75.4964 299° West 392 451 32,300 1,488 Climbing New York Center
Sun 05:11:06 PM 41.9469 -75.6231 299° West 392 451 33,800 843 Climbing New York Center
Sun 05:12:06 PM 41.9981 -75.7494 299° West 392 451 34,000 99 Climbing New York Center
Sun 05:13:07 PM 42.0508 -75.8764 299° West 392 451 34,000 50 Level New York Center
Sun 05:14:05 PM 42.1114 -76.0208 300° West 392 451 34,100 958 Climbing New York Center
Sun 05:15:06 PM 42.1575 -76.1531 295° West 397 457 35,900 927 Climbing New York Center
Sun 05:16:08 PM 42.1697 -76.2939 277° West 383 441 36,000 50 Climbing New York Center
Sun 05:17:05 PM 42.1797 -76.4375 275° West 383 441 36,000  Level New York Center
Sun 05:18:19 PM 42.1933 -76.6031 276° West 391 450 36,000 493 Level Cleveland Center
Sun 05:19:19 PM 42.2047 -76.7481 276° West 391 450 37,100 1,000 Climbing Cleveland Center
Sun 05:20:19 PM 42.2131 -76.8822 275° West 378 435 38,000 450 Climbing Cleveland Center
Sun 05:21:19 PM 42.2217 -77.0164 275° West 373 429 38,000  Level Cleveland Center
Sun 05:22:19 PM 42.2319 -77.1506 276° West 363 418 38,000  Level Cleveland Center
Sun 05:23:19 PM 42.2419 -77.2817 276° West 363 418 38,000  Level Cleveland Center
Sun 05:24:19 PM 42.2500 -77.4133 275° West 358 412 38,000  Level Cleveland Center
Sun 05:25:19 PM 42.2661 -77.5472 279° West 358 412 38,000  Level Cleveland Center
Sun 05:26:19 PM 42.3069 -77.6856 292° West 358 412 38,000  Level Cleveland Center
Sun 05:27:19 PM 42.3519 -77.8156 295° West 369 425 38,000  Level Cleveland Center
Sun 05:28:19 PM 42.3947 -77.9458 294° West 374 430 38,000  Level Cleveland Center
Sun 05:29:19 PM 42.4372 -78.0792 293° West 379 436 38,000  Level Cleveland Center
Sun 05:30:19 PM 42.4794 -78.2069 294° West 379 436 38,000  Level Cleveland Center
Sun 05:31:19 PM 42.5197 -78.3381 293° West 379 436 38,000  Level Cleveland Center
Sun 05:32:19 PM 42.5617 -78.4689 294° West 379 436 38,000  Level Cleveland Center
Sun 05:33:19 PM 42.6017 -78.5975 293° West 373 429 38,000  Level Cleveland Center
Sun 05:34:19 PM 42.6411 -78.7231 293° West 373 429 38,000  Level Cleveland Center
Sun 05:35:19 PM 42.6806 -78.8519 293° West 373 429 38,000  Level Cleveland Center
Sun 05:36:19 PM 42.7158 -78.9839 290° West 373 429 38,000 -250 Level Cleveland Center
Sun 05:37:19 PM 42.7178 -79.1222 271° West 359 413 37,500 -1,000 Descending Cleveland Center
Sun 05:38:19 PM 42.7194 -79.2664 271° West 372 428 36,000 -1,500 Descending Cleveland Center
Sun 05:39:19 PM 42.7189 -79.4075 270° West 372 428 34,500 -1,500 Descending Cleveland Center
Sun 05:40:19 PM 42.7183 -79.5544 270° West 389 448 33,000 -900 Descending Cleveland Center
Sun 05:41:19 PM 42.7194 -79.6986 271° West 389 448 32,700 -650 Descending Cleveland Center
Sun 05:42:19 PM 42.7164 -79.8542 269° West 396 456 31,700 -950 Descending Cleveland Center
Sun 05:43:19 PM 42.7150 -80.0039 269° West 421 484 30,800 -950 Descending Cleveland Center
Sun 05:44:19 PM 42.7117 -80.1594 268° West 428 493 29,800 -1,000 Descending Cleveland Center
Sun 05:45:19 PM 42.7122 -80.3203 270° West 425 489 28,800 -900 Descending Cleveland Center
Sun 05:46:19 PM 42.7103 -80.4731 269° West 409 471 28,000 -400 Descending Cleveland Center
Sun 05:47:19 PM 42.7083 -80.6397 269° West 403 464 28,000 -700 Level Cleveland Center
Sun 05:48:19 PM 42.7081 -80.7894 270° West 403 464 26,600 -1,450 Descending Cleveland Center
Sun 05:49:19 PM 42.7014 -80.9278 266° West 391 450 25,100 -1,500 Descending Cleveland Center
Sun 05:50:19 PM 42.7008 -81.0747 270° West 386 444 23,600 -1,500 Descending Cleveland Center
Sun 05:51:19 PM 42.6836 -81.2158 261° West 386 444 22,100 -1,500 Descending Cleveland Center
Sun 05:52:19 PM 42.6661 -81.3539 260° West 386 444 20,600 -1,500 Descending Cleveland Center
Sun 05:53:19 PM 42.6483 -81.4892 260° West 380 437 19,100 -1,450 Descending Cleveland Center
Sun 05:54:19 PM 42.6306 -81.6161 259° West 367 422 17,700 -1,450 Descending Cleveland Center
Sun 05:55:19 PM 42.6147 -81.7456 261° West 354 407 16,200 -1,400 Descending Cleveland Center
Sun 05:56:19 PM 42.5989 -81.8608 259° West 349 402 14,900 -1,350 Descending Cleveland Center
Sun 05:57:19 PM 42.5831 -81.9875 260° West 349 402 13,500 -1,400 Descending Cleveland Center
Sun 05:58:19 PM 42.5647 -82.1167 259° West 349 402 12,100 -865 Descending Cleveland Center
Sun 05:59:03 PM 42.5528 -82.2264 262° West 356 410 12,000 -100 Descending Cleveland Center
Sun 05:59:19 PM 42.5483 -82.2458 253° West 354 407 12,000  Level Cleveland Center
Sun 06:00:04 PM 42.5339 -82.3611 260° West 355 409 12,000  Level Cleveland Center
Sun 06:00:19 PM 42.5294 -82.3781 250° West 354 407 12,000  Level Cleveland Center
Sun 06:01:05 PM 42.5153 -82.4931 261° West 355 409 12,000  Level Cleveland Center
Sun 06:02:06 PM 42.4817 -82.6214 250° West 354 407 12,000  Level Cleveland Center
Sun 06:03:08 PM 42.4378 -82.7439 244° Southwest 353 406 12,000  Level Cleveland Center
Sun 06:04:08 PM 42.3939 -82.8661 244° Southwest 352 405 12,000  Level Cleveland Center
Sun 06:05:10 PM 42.3539 -82.9828 245° Southwest 351 404 12,000  Level Cleveland Center
Sun 06:06:11 PM 42.3097 -83.1017 243° Southwest 350 403 12,000 -98 Level Cleveland Center
Sun 06:07:12 PM 42.2533 -83.1892 229° Southwest 264 304 11,800 -885 Descending Cleveland Center
Sun 06:08:13 PM 42.1903 -83.2231 202° Southwest 227 261 10,200 -1,721 Descending Cleveland Center
Sun 06:09:14 PM 42.1311 -83.2572 203° Southwest 228 262 8,300 -1,574 Descending Cleveland Center
Sun 06:10:15 PM 42.0761 -83.2883 203° Southwest 214 246 7,000 -1,268 Descending Cleveland Center
Sun 06:11:17 PM 42.0231 -83.3225 206° Southwest 207 238 5,700 -1,902 Descending Cleveland Center
Sun 06:12:18 PM 42.0047 -83.3886 250° West 239 275 3,100 -1,317 Descending Cleveland Center
Sun 06:13:20 PM 42.0628 -83.4081 346° North 194 223 3,000 -244 Descending Cleveland Center
Sun 06:14:21 PM 42.1169 -83.4133 356° North 186 214 2,600 -393 Descending Cleveland Center

Login

Don't have an account? Register now (free) for customized features, flight alerts, and more!